Terminal Aerodrome Forecast
Issued by NWS

Home | Current Version | Previous Version | Text Only | Print | Product List | Glossary On
Versions: 1 2 3 4 5 6 7 8 9 10 11 12 13
000
FTUS46 KPDT 301700
TAFRDM
TAF
KRDM 301740Z 3018/3118 VRB02KT 6SM BR SCT003 BKN100
     FM301900 VRB05KT P6SM SCT110 BKN130
     FM302100 31008KT P6SM SCT130 BKN150
     FM310800 18004KT 3SM -RA BR BKN020 OVC030
     FM311100 21005KT 2SM RA BR SCT010 OVC020=

USA.gov is the U.S. government's official web portal to all federal, state and local government web resources and services.